createdAt,value
2023-02-27T00:01:52.231Z,45.86
2023-02-27T00:04:22.245Z,45.91
2023-02-27T00:06:52.213Z,46.11
2023-02-27T00:09:22.320Z,46.11
2023-02-27T00:11:52.344Z,46.25
2023-02-27T00:14:25.243Z,46.38
2023-02-27T00:16:55.269Z,46.34
2023-02-27T00:19:25.355Z,46.42
2023-02-27T00:21:55.277Z,46.66
2023-02-27T00:24:25.337Z,47.05
2023-02-27T00:26:55.346Z,47.21
2023-02-27T00:29:28.164Z,47.28
2023-02-27T00:31:58.399Z,47.23
2023-02-27T00:34:28.885Z,47.34
2023-02-27T00:36:58.979Z,47.27
2023-02-27T00:39:29.038Z,47.22
2023-02-27T00:41:59.106Z,47.17
2023-02-27T00:44:31.821Z,47.04
2023-02-27T00:47:01.939Z,46.90
2023-02-27T00:49:31.891Z,47.15
2023-02-27T00:52:01.893Z,47.27
2023-02-27T00:54:32.131Z,47.18
2023-02-27T00:57:02.205Z,47.25
2023-02-27T00:59:34.856Z,47.27
2023-02-27T01:02:04.851Z,47.08
2023-02-27T01:04:35.164Z,47.24
2023-02-27T01:07:05.310Z,47.15
2023-02-27T01:09:35.585Z,47.37
2023-02-27T01:12:05.690Z,47.51
2023-02-27T01:14:38.676Z,47.70
2023-02-27T01:17:09.027Z,47.68
2023-02-27T01:19:41.314Z,47.78
2023-02-27T01:22:11.280Z,47.79
2023-02-27T01:24:41.418Z,47.99
2023-02-27T01:27:11.660Z,48.15
2023-02-27T01:29:44.609Z,48.38
2023-02-27T01:32:14.890Z,48.29
2023-02-27T01:34:44.976Z,48.37
2023-02-27T01:37:14.930Z,48.55
2023-02-27T01:39:46.104Z,48.61
2023-02-27T01:42:23.908Z,48.69
2023-02-27T01:45:28.936Z,48.62
2023-02-27T01:48:06.641Z,48.99
2023-02-27T01:50:39.022Z,48.83
2023-02-27T01:53:10.169Z,49.08
2023-02-27T01:55:42.495Z,49.24
2023-02-27T01:58:15.249Z,49.50
2023-02-27T02:00:48.664Z,49.78
2023-02-27T02:03:28.526Z,50.07
2023-02-27T02:06:00.937Z,49.80
2023-02-27T02:08:35.761Z,49.83
2023-02-27T02:11:06.503Z,49.73
2023-02-27T02:13:37.383Z,49.86
2023-02-27T02:16:24.326Z,50.08
2023-02-27T02:19:03.593Z,50.13
2023-02-27T02:22:00.713Z,50.33
2023-02-27T02:24:51.895Z,50.19
2023-02-27T02:27:31.036Z,50.37
2023-02-27T02:30:39.317Z,50.22
2023-02-27T02:33:38.746Z,50.03
2023-02-27T02:36:45.795Z,50.01
2023-02-27T02:39:31.204Z,50.13
2023-02-27T02:42:07.324Z,50.16
2023-02-27T02:44:44.622Z,50.33
2023-02-27T02:47:25.306Z,50.55
2023-02-27T02:50:00.689Z,50.45
2023-02-27T02:52:39.394Z,50.39
2023-02-27T02:55:17.213Z,50.33
2023-02-27T02:57:55.745Z,50.29
2023-02-27T03:00:31.161Z,50.35
2023-02-27T03:03:09.742Z,50.34
2023-02-27T03:05:47.361Z,50.42
2023-02-27T03:08:22.998Z,50.27
2023-02-27T03:10:59.984Z,50.45
2023-02-27T03:13:37.033Z,50.39
2023-02-27T03:16:14.061Z,50.26
2023-02-27T03:18:50.680Z,50.23
2023-02-27T03:21:26.422Z,50.36
2023-02-27T03:24:02.498Z,50.45
2023-02-27T03:26:39.263Z,50.58
2023-02-27T03:29:12.075Z,50.52
2023-02-27T03:31:47.804Z,50.49
2023-02-27T03:34:24.214Z,50.39
2023-02-27T03:37:03.018Z,50.77
2023-02-27T03:39:44.946Z,50.64
2023-02-27T03:42:27.445Z,50.48
2023-02-27T03:45:27.200Z,50.52
2023-02-27T03:47:57.653Z,50.55
2023-02-27T03:50:28.602Z,50.64
2023-02-27T03:53:00.009Z,50.84
2023-02-27T03:55:36.419Z,51.13
2023-02-27T03:58:09.485Z,51.05
2023-02-27T04:00:39.937Z,50.98
2023-02-27T04:03:10.751Z,50.91
2023-02-27T04:05:40.986Z,51.09
2023-02-27T04:08:50.720Z,50.97
2023-02-27T04:11:37.247Z,51.15
2023-02-27T04:14:26.330Z,51.05
2023-02-27T04:17:28.773Z,50.92
2023-02-27T04:20:23.393Z,51.02
2023-02-27T04:22:58.614Z,50.98
2023-02-27T04:26:02.756Z,50.99
2023-02-27T04:28:44.564Z,51.11
2023-02-27T04:31:25.070Z,51.30
2023-02-27T04:34:02.914Z,51.46
2023-02-27T04:36:39.328Z,51.38
2023-02-27T04:39:11.731Z,51.74
2023-02-27T04:41:47.798Z,51.90
2023-02-27T04:44:19.424Z,51.81
2023-02-27T04:46:55.359Z,51.92
2023-02-27T04:49:29.208Z,51.77
2023-02-27T04:52:05.508Z,52.00
2023-02-27T04:54:40.612Z,52.01
2023-02-27T04:57:17.013Z,52.15
2023-02-27T04:59:51.690Z,52.26
2023-02-27T05:02:30.057Z,52.41
2023-02-27T05:05:03.188Z,52.49
2023-02-27T05:07:40.938Z,52.57
2023-02-27T05:10:17.895Z,52.51
2023-02-27T05:12:52.571Z,52.93
2023-02-27T05:15:30.109Z,52.63
2023-02-27T05:18:05.917Z,52.78
2023-02-27T05:20:43.000Z,52.59
2023-02-27T05:23:19.174Z,52.86
2023-02-27T05:25:58.145Z,52.77
2023-02-27T05:28:37.062Z,52.75
2023-02-27T05:31:13.248Z,52.60
2023-02-27T05:33:51.625Z,52.61
2023-02-27T05:36:29.120Z,52.91
2023-02-27T05:39:02.957Z,52.98
2023-02-27T05:41:42.417Z,53.12
2023-02-27T05:44:16.824Z,53.02
2023-02-27T05:46:51.713Z,53.09
2023-02-27T05:49:28.976Z,53.21
2023-02-27T05:52:02.753Z,53.16
2023-02-27T05:54:39.135Z,53.05
2023-02-27T05:57:13.418Z,53.21
2023-02-27T05:59:50.834Z,53.50
2023-02-27T06:02:20.992Z,53.57
2023-02-27T06:04:53.909Z,53.65
2023-02-27T06:07:25.385Z,53.55
2023-02-27T06:09:55.467Z,53.38
2023-02-27T06:12:25.483Z,53.36
2023-02-27T06:14:55.609Z,53.26
2023-02-27T06:17:25.678Z,53.34
2023-02-27T06:19:58.394Z,53.21
2023-02-27T06:22:28.423Z,53.12
2023-02-27T06:25:02.750Z,53.30
2023-02-27T06:27:53.853Z,53.21
2023-02-27T06:30:24.130Z,52.92
2023-02-27T06:32:54.210Z,53.23
2023-02-27T06:35:27.714Z,53.45
2023-02-27T06:37:57.840Z,53.45
2023-02-27T06:40:28.287Z,53.35
2023-02-27T06:42:58.347Z,53.13
2023-02-27T06:45:28.275Z,53.06
2023-02-27T06:47:58.249Z,53.39
2023-02-27T06:50:31.416Z,53.86
2023-02-27T06:53:01.426Z,53.64
2023-02-27T06:55:31.423Z,53.26
2023-02-27T06:58:01.490Z,53.44
2023-02-27T07:00:32.271Z,53.36
2023-02-27T07:03:04.525Z,53.21
2023-02-27T07:05:37.110Z,53.26
2023-02-27T07:08:07.630Z,53.58
2023-02-27T07:10:38.956Z,53.33
2023-02-27T07:13:08.902Z,53.20
2023-02-27T07:15:39.042Z,53.55
2023-02-27T07:18:09.411Z,53.34
2023-02-27T07:20:42.316Z,53.52
2023-02-27T07:23:17.245Z,53.18
2023-02-27T07:25:49.356Z,52.84
2023-02-27T07:28:19.982Z,53.09
2023-02-27T07:30:50.078Z,53.25
2023-02-27T07:33:20.337Z,53.48
2023-02-27T07:35:53.173Z,53.43
2023-02-27T07:38:24.160Z,53.25
2023-02-27T07:40:56.306Z,52.92
2023-02-27T07:43:26.639Z,52.81
2023-02-27T07:45:57.237Z,52.78
2023-02-27T07:48:27.488Z,52.73
2023-02-27T07:51:00.192Z,52.38
2023-02-27T07:53:30.501Z,52.23
2023-02-27T07:56:00.451Z,52.20
2023-02-27T07:58:30.558Z,51.69
2023-02-27T08:01:00.614Z,51.64
2023-02-27T08:03:30.560Z,51.58
2023-02-27T08:06:03.234Z,51.58
2023-02-27T08:08:52.450Z,50.83
2023-02-27T08:11:22.588Z,50.53
2023-02-27T08:14:00.440Z,50.35
2023-02-27T08:16:32.469Z,49.77
2023-02-27T08:19:02.914Z,49.60
2023-02-27T08:21:35.542Z,49.55
2023-02-27T08:24:05.563Z,48.97
2023-02-27T08:26:35.797Z,48.38
2023-02-27T08:29:06.020Z,48.41
2023-02-27T08:31:36.687Z,48.08
2023-02-27T08:34:10.604Z,47.35
2023-02-27T08:36:43.788Z,47.52
2023-02-27T08:39:13.817Z,47.28
2023-02-27T08:41:43.830Z,46.78
2023-02-27T08:44:14.247Z,46.67
2023-02-27T08:46:44.539Z,46.94
2023-02-27T08:49:14.795Z,46.96
2023-02-27T08:51:47.434Z,46.50
2023-02-27T08:54:17.399Z,45.81
2023-02-27T08:56:47.736Z,45.02
2023-02-27T08:59:18.258Z,44.86
2023-02-27T09:01:48.368Z,45.59
2023-02-27T09:04:18.413Z,45.72
2023-02-27T09:06:50.977Z,46.55
2023-02-27T09:09:21.006Z,46.93
2023-02-27T09:11:51.244Z,47.24
2023-02-27T09:14:21.682Z,47.45
2023-02-27T09:16:51.660Z,47.09
2023-02-27T09:19:21.794Z,46.80
2023-02-27T09:21:54.414Z,46.86
2023-02-27T09:24:24.447Z,46.39
2023-02-27T09:26:54.538Z,46.19
2023-02-27T09:29:25.820Z,46.16
2023-02-27T09:31:56.172Z,46.06
2023-02-27T09:34:26.274Z,45.99
2023-02-27T09:37:02.044Z,45.73
2023-02-27T09:39:32.063Z,45.24
2023-02-27T09:42:06.991Z,44.77
2023-02-27T09:44:47.182Z,43.85
2023-02-27T09:47:26.581Z,43.57
2023-02-27T09:50:03.471Z,42.82
2023-02-27T09:52:39.248Z,42.93
2023-02-27T09:55:15.960Z,42.84
2023-02-27T09:57:52.513Z,42.72
2023-02-27T10:00:38.340Z,41.84
2023-02-27T10:03:21.542Z,41.58
2023-02-27T10:06:00.272Z,41.32
2023-02-27T10:08:38.622Z,40.91
2023-02-27T10:11:11.407Z,40.77
2023-02-27T10:13:55.729Z,40.42
2023-02-27T10:16:28.559Z,40.24
2023-02-27T10:19:01.658Z,39.16
2023-02-27T10:21:36.134Z,38.77
2023-02-27T10:24:19.892Z,38.81
2023-02-27T10:26:50.007Z,38.67
2023-02-27T10:29:31.431Z,38.32
2023-02-27T10:32:06.390Z,37.97
2023-02-27T10:34:37.216Z,38.03
2023-02-27T10:37:09.209Z,37.70
2023-02-27T10:39:48.012Z,37.71
2023-02-27T10:42:19.969Z,37.02
2023-02-27T10:44:53.905Z,36.44
2023-02-27T10:47:26.668Z,35.80
2023-02-27T10:50:00.437Z,35.75
2023-02-27T10:52:30.510Z,35.36
2023-02-27T10:55:21.037Z,35.49
2023-02-27T10:57:51.203Z,36.41
2023-02-27T11:00:35.385Z,36.42
2023-02-27T11:03:05.543Z,35.90
2023-02-27T11:05:38.206Z,35.70
2023-02-27T11:08:23.227Z,35.93
2023-02-27T11:11:04.488Z,36.29
2023-02-27T11:13:36.387Z,36.50
2023-02-27T11:16:20.496Z,36.76
2023-02-27T11:18:52.140Z,37.19
2023-02-27T11:21:25.489Z,37.00
2023-02-27T11:23:59.724Z,36.90
2023-02-27T11:26:36.322Z,37.71
2023-02-27T11:29:18.508Z,37.74
2023-02-27T11:31:53.754Z,38.20
2023-02-27T11:34:30.197Z,38.18
2023-02-27T11:37:31.291Z,37.08
2023-02-27T11:40:19.922Z,36.99
2023-02-27T11:43:02.674Z,36.41
2023-02-27T11:46:09.437Z,35.99
2023-02-27T11:48:30.137Z,36.78
2023-02-27T11:51:19.911Z,36.89
2023-02-27T11:54:09.831Z,36.83
2023-02-27T11:56:43.311Z,36.28
2023-02-27T11:59:38.791Z,36.39
2023-02-27T12:02:18.474Z,36.28
2023-02-27T12:04:54.904Z,36.68
2023-02-27T12:07:29.021Z,37.34
2023-02-27T12:10:09.056Z,37.88
2023-02-27T12:12:47.908Z,38.28
2023-02-27T12:15:28.794Z,37.21
2023-02-27T12:18:08.311Z,36.63
2023-02-27T12:20:41.620Z,34.84
2023-02-27T12:23:21.582Z,32.93
2023-02-27T12:25:55.416Z,27.89
2023-02-27T12:28:40.156Z,24.04
2023-02-27T12:31:40.128Z,21.92
2023-02-27T12:34:20.356Z,19.39
2023-02-27T12:36:50.940Z,20.01
2023-02-27T12:39:23.496Z,21.28
2023-02-27T12:42:29.507Z,21.63
2023-02-27T12:45:20.802Z,19.01
2023-02-27T12:48:01.074Z,19.00
2023-02-27T12:50:41.614Z,20.75
2023-02-27T12:53:29.880Z,23.51
2023-02-27T12:56:07.015Z,25.33
2023-02-27T12:58:48.041Z,26.71
2023-02-27T13:01:31.234Z,26.78
2023-02-27T13:04:11.873Z,26.58
2023-02-27T13:06:49.145Z,27.27
2023-02-27T13:09:25.852Z,27.67
2023-02-27T13:12:05.927Z,28.34
2023-02-27T13:14:46.295Z,28.56
2023-02-27T13:17:23.275Z,28.75
2023-02-27T13:20:00.375Z,28.70
2023-02-27T13:22:40.513Z,28.67
2023-02-27T13:25:17.047Z,28.92
2023-02-27T13:27:51.181Z,29.05
2023-02-27T13:30:27.424Z,29.34
2023-02-27T13:33:05.977Z,29.32
2023-02-27T13:36:01.105Z,29.08
2023-02-27T13:38:46.307Z,29.38
2023-02-27T13:41:38.952Z,29.14
2023-02-27T13:44:50.107Z,29.79
2023-02-27T13:47:42.386Z,29.42
2023-02-27T13:50:48.458Z,29.34
2023-02-27T13:53:24.745Z,26.14
2023-02-27T13:56:23.357Z,25.01
2023-02-27T13:58:57.974Z,25.12
2023-02-27T14:01:32.242Z,25.69
2023-02-27T14:04:10.197Z,26.00
2023-02-27T14:06:47.596Z,26.68
2023-02-27T14:09:24.842Z,27.07
2023-02-27T14:11:58.409Z,27.29
2023-02-27T14:14:47.358Z,27.78
2023-02-27T14:17:37.831Z,28.36
2023-02-27T14:20:13.656Z,29.16
2023-02-27T14:23:16.290Z,29.82
2023-02-27T14:25:55.920Z,30.12
2023-02-27T14:28:48.003Z,30.62
2023-02-27T14:31:25.222Z,30.63
2023-02-27T14:33:59.213Z,30.81
2023-02-27T14:36:31.551Z,31.45
2023-02-27T14:39:25.216Z,31.86
2023-02-27T14:42:13.439Z,31.76
2023-02-27T14:44:47.961Z,32.42
2023-02-27T14:47:29.780Z,32.36
2023-02-27T14:50:04.664Z,32.74
2023-02-27T14:52:54.066Z,32.76
2023-02-27T14:58:35.917Z,32.81
2023-02-27T15:01:14.406Z,32.89
2023-02-27T15:03:54.867Z,33.04
2023-02-27T15:06:49.113Z,33.11
2023-02-27T15:09:26.907Z,33.07
2023-02-27T15:12:04.983Z,33.21
2023-02-27T15:14:40.394Z,33.03
2023-02-27T15:17:19.996Z,33.42
2023-02-27T15:23:30.559Z,33.79
2023-02-27T15:26:20.025Z,33.85
2023-02-27T15:29:01.289Z,34.05
2023-02-27T15:31:35.308Z,34.06
2023-02-27T15:34:17.460Z,34.35
2023-02-27T15:36:51.170Z,34.07
2023-02-27T15:39:24.017Z,34.01
2023-02-27T15:41:56.045Z,34.16
2023-02-27T15:44:29.448Z,34.41
2023-02-27T15:47:02.530Z,34.24
2023-02-27T15:49:33.272Z,34.46
2023-02-27T15:52:05.741Z,34.56
2023-02-27T15:54:37.369Z,34.46
2023-02-27T15:57:08.432Z,35.08
2023-02-27T15:59:42.978Z,35.10
2023-02-27T16:02:23.328Z,35.62
2023-02-27T16:04:53.563Z,35.79
2023-02-27T16:07:26.219Z,35.81
2023-02-27T16:10:47.452Z,36.82
2023-02-27T16:13:24.933Z,36.57
2023-02-27T16:16:03.149Z,36.27
2023-02-27T16:18:37.072Z,36.10
2023-02-27T16:21:16.467Z,35.92
2023-02-27T16:23:47.262Z,35.93
2023-02-27T16:26:28.205Z,35.91
2023-02-27T16:29:00.249Z,35.84
2023-02-27T16:31:33.499Z,35.86
2023-02-27T16:34:15.610Z,36.34
2023-02-27T16:36:54.746Z,36.21
2023-02-27T16:39:24.993Z,36.56
2023-02-27T16:41:59.920Z,36.69
2023-02-27T16:44:30.234Z,36.85
2023-02-27T16:47:02.200Z,36.82
2023-02-27T16:49:33.763Z,36.74
2023-02-27T16:52:05.970Z,36.87
2023-02-27T16:54:36.752Z,36.90
2023-02-27T16:57:09.707Z,36.97
2023-02-27T16:59:42.004Z,37.21
2023-02-27T17:02:15.967Z,37.32
2023-02-27T17:04:48.101Z,37.27
2023-02-27T17:07:20.431Z,37.28
2023-02-27T17:09:51.369Z,37.27
2023-02-27T17:12:24.025Z,37.26
2023-02-27T17:14:54.066Z,37.28
2023-02-27T17:17:24.227Z,37.19
2023-02-27T17:19:55.695Z,37.45
2023-02-27T17:22:26.070Z,37.75
2023-02-27T17:24:56.098Z,37.87
2023-02-27T17:27:28.722Z,37.89
2023-02-27T17:29:58.915Z,37.93
2023-02-27T17:32:29.128Z,38.14
2023-02-27T17:34:59.511Z,38.68
2023-02-27T17:37:29.828Z,38.58
2023-02-27T17:39:59.784Z,38.43
2023-02-27T17:42:32.585Z,38.63
2023-02-27T17:45:05.593Z,38.62
2023-02-27T17:47:36.401Z,38.68
2023-02-27T17:50:07.524Z,38.75
2023-02-27T17:52:38.825Z,38.40
2023-02-27T17:55:10.617Z,38.70
2023-02-27T17:57:43.465Z,39.07
2023-02-27T18:00:17.253Z,39.17
2023-02-27T18:02:48.100Z,39.19
2023-02-27T18:05:18.472Z,39.00
2023-02-27T18:07:48.726Z,39.04
2023-02-27T18:10:18.680Z,39.27
2023-02-27T18:12:51.290Z,39.29
2023-02-27T18:15:21.315Z,39.26
2023-02-27T18:17:51.590Z,39.16
2023-02-27T18:20:21.792Z,39.40
2023-02-27T18:22:51.879Z,39.26
2023-02-27T18:25:23.520Z,39.35
2023-02-27T18:27:57.155Z,39.43
2023-02-27T18:30:28.978Z,39.54
2023-02-27T18:33:01.156Z,39.83
2023-02-27T18:35:31.408Z,40.17
2023-02-27T18:38:02.346Z,40.06
2023-02-27T18:40:32.446Z,40.20
2023-02-27T18:43:05.171Z,40.60
2023-02-27T18:45:35.410Z,40.67
2023-02-27T18:48:05.499Z,40.84
2023-02-27T18:50:35.665Z,40.83
2023-02-27T18:53:05.917Z,40.96
2023-02-27T18:55:35.919Z,40.95
2023-02-27T18:58:08.609Z,41.13
2023-02-27T19:00:38.925Z,41.32
2023-02-27T19:03:09.180Z,41.20
2023-02-27T19:05:43.264Z,41.39
2023-02-27T19:08:13.686Z,41.48
2023-02-27T19:10:44.139Z,41.45
2023-02-27T19:13:19.280Z,41.68
2023-02-27T19:15:50.857Z,41.38
2023-02-27T19:18:51.411Z,41.79
2023-02-27T19:21:21.451Z,41.67
2023-02-27T19:23:51.484Z,41.58
2023-02-27T19:26:22.129Z,41.87
2023-02-27T19:28:56.502Z,41.71
2023-02-27T19:31:28.672Z,42.03
2023-02-27T19:33:59.118Z,41.99
2023-02-27T19:36:31.504Z,41.90
2023-02-27T19:39:02.239Z,41.94
2023-02-27T19:41:33.532Z,41.98
2023-02-27T19:44:07.733Z,42.14
2023-02-27T19:46:40.949Z,42.11
2023-02-27T19:49:11.278Z,42.09
2023-02-27T19:51:41.792Z,42.34
2023-02-27T19:54:15.535Z,42.52
2023-02-27T19:56:46.119Z,42.79
2023-02-27T19:59:18.865Z,42.80
2023-02-27T20:01:48.852Z,42.82
2023-02-27T20:04:19.406Z,42.98
2023-02-27T20:06:53.748Z,42.81
2023-02-27T20:09:24.103Z,42.90
2023-02-27T20:11:58.215Z,43.28
2023-02-27T20:14:32.756Z,43.37
2023-02-27T20:17:03.289Z,43.48
2023-02-27T20:19:33.541Z,43.70
2023-02-27T20:22:03.482Z,43.61
2023-02-27T20:24:33.585Z,43.55
2023-02-27T20:27:07.373Z,43.84
2023-02-27T20:29:42.739Z,43.94
2023-02-27T20:32:15.928Z,43.79
2023-02-27T20:34:50.178Z,43.99
2023-02-27T20:37:20.229Z,43.81
2023-02-27T20:39:54.203Z,43.81
2023-02-27T20:42:24.201Z,43.87
2023-02-27T20:44:57.029Z,43.91
2023-02-27T20:47:27.069Z,44.08
2023-02-27T20:49:57.256Z,43.90
2023-02-27T20:52:27.402Z,44.12
2023-02-27T20:54:57.502Z,44.06
2023-02-27T20:57:27.978Z,44.19
2023-02-27T21:00:00.723Z,44.46
2023-02-27T21:02:30.824Z,44.52
2023-02-27T21:05:01.004Z,44.39
2023-02-27T21:07:40.643Z,44.60
2023-02-27T21:10:14.763Z,44.80
2023-02-27T21:12:45.306Z,44.67
2023-02-27T21:15:21.359Z,44.78
2023-02-27T21:17:51.764Z,45.04
2023-02-27T21:20:22.519Z,45.13
2023-02-27T21:22:55.817Z,45.33
2023-02-27T21:25:28.715Z,45.51
2023-02-27T21:28:02.788Z,45.43
2023-02-27T21:30:36.337Z,45.58
2023-02-27T21:33:08.637Z,45.50
2023-02-27T21:35:50.310Z,45.74
2023-02-27T21:38:20.399Z,45.65
2023-02-27T21:40:53.516Z,45.96
2023-02-27T21:43:24.027Z,45.96
2023-02-27T21:46:03.414Z,46.38
2023-02-27T21:48:34.786Z,46.49
2023-02-27T21:51:07.981Z,46.71
2023-02-27T21:53:39.040Z,47.03
2023-02-27T21:56:10.859Z,47.04
2023-02-27T21:58:43.028Z,47.04
2023-02-27T22:01:23.575Z,47.31
2023-02-27T22:03:56.829Z,47.45
2023-02-27T22:06:28.769Z,47.50
2023-02-27T22:08:59.897Z,47.56
2023-02-27T22:11:33.070Z,47.58
2023-02-27T22:14:08.230Z,47.73
2023-02-27T22:16:41.384Z,47.58
2023-02-27T22:19:19.950Z,47.38
2023-02-27T22:21:50.787Z,47.33
2023-02-27T22:24:21.088Z,47.40
2023-02-27T22:26:51.146Z,47.74
2023-02-27T22:29:21.278Z,47.73
2023-02-27T22:32:08.968Z,47.94
2023-02-27T22:34:39.111Z,47.91
2023-02-27T22:37:09.058Z,47.72
2023-02-27T22:39:39.347Z,47.81
2023-02-27T22:42:09.833Z,47.89
2023-02-27T22:44:41.252Z,48.13
2023-02-27T22:47:13.953Z,48.15
2023-02-27T22:49:44.087Z,48.08
2023-02-27T22:52:14.065Z,48.41
2023-02-27T22:54:44.044Z,48.45
2023-02-27T22:57:14.225Z,48.36
2023-02-27T22:59:44.466Z,48.17
2023-02-27T23:02:17.388Z,48.21
2023-02-27T23:04:47.476Z,48.38
2023-02-27T23:07:17.435Z,48.28
2023-02-27T23:09:47.561Z,48.49
2023-02-27T23:12:17.494Z,48.40
2023-02-27T23:14:47.527Z,48.39
2023-02-27T23:17:20.161Z,48.66
2023-02-27T23:19:50.716Z,48.68
2023-02-27T23:22:20.705Z,48.60
2023-02-27T23:24:50.654Z,48.76
2023-02-27T23:27:26.225Z,48.78
2023-02-27T23:29:56.548Z,48.73
2023-02-27T23:32:29.194Z,48.64
2023-02-27T23:34:59.180Z,48.75
2023-02-27T23:37:29.491Z,48.91
2023-02-27T23:39:59.531Z,48.97
2023-02-27T23:42:29.495Z,49.04
2023-02-27T23:45:11.761Z,48.95
2023-02-27T23:47:44.514Z,48.99
2023-02-27T23:50:15.322Z,48.94
2023-02-27T23:52:45.291Z,48.90
2023-02-27T23:55:15.434Z,49.08
2023-02-27T23:57:45.738Z,49.03
